sensor_id;sensor_type;location;lat;lon;timestamp;pressure;altitude;pressure_sealevel;temperature;humidity
26823;BME280;14852;51.910;8.878;2023-05-25T00:02:05;100659.91;;;11.31;57.88
26823;BME280;14852;51.910;8.878;2023-05-25T00:04:31;100660.88;;;11.29;58.00
26823;BME280;14852;51.910;8.878;2023-05-25T00:06:59;100667.78;;;11.30;57.75
26823;BME280;14852;51.910;8.878;2023-05-25T00:09:25;100662.59;;;11.30;57.96
26823;BME280;14852;51.910;8.878;2023-05-25T00:11:51;100657.38;;;11.30;57.96
26823;BME280;14852;51.910;8.878;2023-05-25T00:14:18;100662.59;;;11.30;57.89
26823;BME280;14852;51.910;8.878;2023-05-25T00:16:44;100663.44;;;11.30;58.00
26823;BME280;14852;51.910;8.878;2023-05-25T00:19:14;100658.34;;;11.27;57.86
26823;BME280;14852;51.910;8.878;2023-05-25T00:21:40;100667.28;;;11.20;57.88
26823;BME280;14852;51.910;8.878;2023-05-25T00:24:07;100668.47;;;11.13;57.99
26823;BME280;14852;51.910;8.878;2023-05-25T00:26:36;100663.56;;;11.05;57.88
26823;BME280;14852;51.910;8.878;2023-05-25T00:29:05;100667.25;;;11.00;58.29
26823;BME280;14852;51.910;8.878;2023-05-25T00:31:31;100664.97;;;10.92;57.93
26823;BME280;14852;51.910;8.878;2023-05-25T00:33:58;100662.53;;;10.87;58.00
26823;BME280;14852;51.910;8.878;2023-05-25T00:36:25;100656.69;;;10.82;58.48
26823;BME280;14852;51.910;8.878;2023-05-25T00:38:50;100655.03;;;10.80;58.49
26823;BME280;14852;51.910;8.878;2023-05-25T00:41:17;100655.09;;;10.78;58.44
26823;BME280;14852;51.910;8.878;2023-05-25T00:43:46;100655.19;;;10.75;58.30
26823;BME280;14852;51.910;8.878;2023-05-25T00:46:14;100659.75;;;10.70;58.10
26823;BME280;14852;51.910;8.878;2023-05-25T00:48:41;100662.47;;;10.67;58.27
26823;BME280;14852;51.910;8.878;2023-05-25T00:51:09;100659.00;;;10.67;58.20
26823;BME280;14852;51.910;8.878;2023-05-25T00:53:35;100661.56;;;10.68;58.19
26823;BME280;14852;51.910;8.878;2023-05-25T00:56:13;100664.94;;;10.70;58.08
26823;BME280;14852;51.910;8.878;2023-05-25T00:58:41;100653.91;;;10.64;58.12
26823;BME280;14852;51.910;8.878;2023-05-25T01:01:12;100656.72;;;10.59;58.44
26823;BME280;14852;51.910;8.878;2023-05-25T01:03:42;100664.84;;;10.50;58.50
26823;BME280;14852;51.910;8.878;2023-05-25T01:06:14;100661.69;;;10.42;58.83
26823;BME280;14852;51.910;8.878;2023-05-25T01:08:49;100660.13;;;10.38;58.56
26823;BME280;14852;51.910;8.878;2023-05-25T01:11:20;100660.22;;;10.35;58.63
26823;BME280;14852;51.910;8.878;2023-05-25T01:13:51;100660.38;;;10.30;58.73
26823;BME280;14852;51.910;8.878;2023-05-25T01:16:17;100665.78;;;10.26;58.53
26823;BME280;14852;51.910;8.878;2023-05-25T01:18:43;100664.22;;;10.20;58.57
26823;BME280;14852;51.910;8.878;2023-05-25T01:21:34;100656.38;;;10.22;58.84
26823;BME280;14852;51.910;8.878;2023-05-25T01:24:37;100659.94;;;10.17;58.97
26823;BME280;14852;51.910;8.878;2023-05-25T01:27:32;100662.59;;;10.16;58.88
26823;BME280;14852;51.910;8.878;2023-05-25T01:30:02;100663.59;;;10.13;58.74
26823;BME280;14852;51.910;8.878;2023-05-25T01:32:30;100659.25;;;10.14;58.52
26823;BME280;14852;51.910;8.878;2023-05-25T01:34:58;100659.16;;;10.15;58.66
26823;BME280;14852;51.910;8.878;2023-05-25T01:37:26;100659.44;;;10.08;58.74
26823;BME280;14852;51.910;8.878;2023-05-25T01:39:52;100655.59;;;9.95;58.81
26823;BME280;14852;51.910;8.878;2023-05-25T01:42:18;100654.16;;;9.86;59.02
26823;BME280;14852;51.910;8.878;2023-05-25T01:44:44;100653.47;;;9.81;59.24
26823;BME280;14852;51.910;8.878;2023-05-25T01:53:14;100658.88;;;9.75;59.23
26823;BME280;14852;51.910;8.878;2023-05-25T01:55:52;100660.69;;;9.73;58.99
26823;BME280;14852;51.910;8.878;2023-05-25T01:58:19;100658.88;;;9.75;58.96
26823;BME280;14852;51.910;8.878;2023-05-25T02:00:48;100655.28;;;9.79;59.00
26823;BME280;14852;51.910;8.878;2023-05-25T02:03:16;100656.00;;;9.82;58.87
26823;BME280;14852;51.910;8.878;2023-05-25T02:05:43;100661.09;;;9.86;58.80
26823;BME280;14852;51.910;8.878;2023-05-25T02:08:08;100665.41;;;9.87;58.79
26823;BME280;14852;51.910;8.878;2023-05-25T02:10:34;100659.31;;;9.88;58.62
26823;BME280;14852;51.910;8.878;2023-05-25T02:13:00;100669.66;;;9.89;58.59
26823;BME280;14852;51.910;8.878;2023-05-25T02:15:32;100663.66;;;9.87;58.99
26823;BME280;14852;51.910;8.878;2023-05-25T02:17:58;100665.72;;;9.77;58.71
26823;BME280;14852;51.910;8.878;2023-05-25T02:20:29;100665.91;;;9.71;59.17
26823;BME280;14852;51.910;8.878;2023-05-25T02:22:55;100661.75;;;9.67;58.80
26823;BME280;14852;51.910;8.878;2023-05-25T02:25:21;100666.94;;;9.67;59.09
26823;BME280;14852;51.910;8.878;2023-05-25T02:27:47;100665.25;;;9.66;58.93
26823;BME280;14852;51.910;8.878;2023-05-25T02:30:13;100662.66;;;9.66;58.93
26823;BME280;14852;51.910;8.878;2023-05-25T02:32:39;100657.47;;;9.66;58.96
26823;BME280;14852;51.910;8.878;2023-05-25T02:35:06;100653.97;;;9.67;58.88
26823;BME280;14852;51.910;8.878;2023-05-25T02:37:32;100659.22;;;9.66;59.03
26823;BME280;14852;51.910;8.878;2023-05-25T02:39:58;100659.34;;;9.61;58.92
26823;BME280;14852;51.910;8.878;2023-05-25T02:42:24;100658.78;;;9.53;58.78
26823;BME280;14852;51.910;8.878;2023-05-25T02:44:50;100660.78;;;9.45;59.21
26823;BME280;14852;51.910;8.878;2023-05-25T02:47:17;100661.16;;;9.34;59.39
26823;BME280;14852;51.910;8.878;2023-05-25T02:49:44;100670.84;;;9.28;59.36
26823;BME280;14852;51.910;8.878;2023-05-25T02:52:10;100669.19;;;9.25;59.51
26823;BME280;14852;51.910;8.878;2023-05-25T02:54:36;100659.63;;;9.27;59.38
26823;BME280;14852;51.910;8.878;2023-05-25T02:57:05;100660.47;;;9.28;59.39
26823;BME280;14852;51.910;8.878;2023-05-25T02:59:33;100667.63;;;9.21;59.04
26823;BME280;14852;51.910;8.878;2023-05-25T03:01:59;100671.41;;;9.11;59.46
26823;BME280;14852;51.910;8.878;2023-05-25T03:04:24;100671.69;;;9.02;59.53
26823;BME280;14852;51.910;8.878;2023-05-25T03:06:50;100677.75;;;9.01;59.36
26823;BME280;14852;51.910;8.878;2023-05-25T03:09:18;100676.78;;;9.05;59.56
26823;BME280;14852;51.910;8.878;2023-05-25T03:11:46;100681.88;;;9.08;59.29
26823;BME280;14852;51.910;8.878;2023-05-25T03:14:15;100681.03;;;9.07;59.26
26823;BME280;14852;51.910;8.878;2023-05-25T03:16:44;100687.09;;;9.06;59.49
26823;BME280;14852;51.910;8.878;2023-05-25T03:19:11;100686.22;;;9.07;59.29
26823;BME280;14852;51.910;8.878;2023-05-25T03:21:37;100682.81;;;9.05;59.47
26823;BME280;14852;51.910;8.878;2023-05-25T03:24:04;100681.97;;;9.05;59.23
26823;BME280;14852;51.910;8.878;2023-05-25T03:26:31;100693.19;;;9.05;59.35
26823;BME280;14852;51.910;8.878;2023-05-25T03:28:57;100689.69;;;9.06;59.33
26823;BME280;14852;51.910;8.878;2023-05-25T03:31:23;100695.63;;;9.10;59.09
26823;BME280;14852;51.910;8.878;2023-05-25T03:33:49;100693.78;;;9.14;59.00
26823;BME280;14852;51.910;8.878;2023-05-25T03:36:16;100695.47;;;9.15;59.10
26823;BME280;14852;51.910;8.878;2023-05-25T03:38:43;100688.59;;;9.14;58.98
26823;BME280;14852;51.910;8.878;2023-05-25T03:41:09;100692.94;;;9.13;59.23
26823;BME280;14852;51.910;8.878;2023-05-25T03:43:35;100694.63;;;9.14;59.24
26823;BME280;14852;51.910;8.878;2023-05-25T03:46:03;100694.41;;;9.22;59.27
26823;BME280;14852;51.910;8.878;2023-05-25T03:48:29;100699.34;;;9.29;58.88
26823;BME280;14852;51.910;8.878;2023-05-25T03:50:55;100705.06;;;9.39;58.80
26823;BME280;14852;51.910;8.878;2023-05-25T03:53:21;100702.28;;;9.45;58.66
26823;BME280;14852;51.910;8.878;2023-05-25T03:55:47;100705.91;;;9.39;58.90
26823;BME280;14852;51.910;8.878;2023-05-25T03:58:16;100707.06;;;9.31;58.86
26823;BME280;14852;51.910;8.878;2023-05-25T04:00:43;100712.44;;;9.25;58.93
26823;BME280;14852;51.910;8.878;2023-05-25T04:03:08;100708.16;;;9.24;59.01
26823;BME280;14852;51.910;8.878;2023-05-25T04:05:35;100709.72;;;9.29;58.94
26823;BME280;14852;51.910;8.878;2023-05-25T04:08:01;100720.53;;;9.42;58.69
26823;BME280;14852;51.910;8.878;2023-05-25T04:10:27;100720.94;;;9.56;58.58
26823;BME280;14852;51.910;8.878;2023-05-25T04:12:53;100707.72;;;9.64;58.04
26823;BME280;14852;51.910;8.878;2023-05-25T04:15:21;100716.44;;;9.61;58.15
26823;BME280;14852;51.910;8.878;2023-05-25T04:18:01;100715.63;;;9.59;58.45
26823;BME280;14852;51.910;8.878;2023-05-25T04:20:28;100718.81;;;9.69;58.42
26823;BME280;14852;51.910;8.878;2023-05-25T04:22:55;100713.34;;;9.76;58.45
26823;BME280;14852;51.910;8.878;2023-05-25T04:25:22;100715.84;;;9.79;58.60
26823;BME280;14852;51.910;8.878;2023-05-25T04:27:48;100721.66;;;9.86;58.27
26823;BME280;14852;51.910;8.878;2023-05-25T04:30:22;100717.94;;;9.93;58.61
26823;BME280;14852;51.910;8.878;2023-05-25T04:33:04;100719.50;;;9.99;58.30
26823;BME280;14852;51.910;8.878;2023-05-25T04:35:34;100727.28;;;9.99;58.67
26823;BME280;14852;51.910;8.878;2023-05-25T04:38:01;100720.97;;;10.06;58.64
26823;BME280;14852;51.910;8.878;2023-05-25T04:40:28;100728.66;;;10.09;58.67
26823;BME280;14852;51.910;8.878;2023-05-25T04:42:54;100724.81;;;10.21;58.70
26823;BME280;14852;51.910;8.878;2023-05-25T04:45:21;100729.63;;;10.31;58.80
26823;BME280;14852;51.910;8.878;2023-05-25T04:47:49;100730.09;;;10.42;58.52
26823;BME280;14852;51.910;8.878;2023-05-25T04:50:16;100732.47;;;10.48;58.46
26823;BME280;14852;51.910;8.878;2023-05-25T04:52:42;100733.19;;;10.52;58.75
26823;BME280;14852;51.910;8.878;2023-05-25T04:55:09;100733.78;;;10.60;58.79
26823;BME280;14852;51.910;8.878;2023-05-25T04:57:37;100738.84;;;10.63;58.64
26823;BME280;14852;51.910;8.878;2023-05-25T05:00:05;100733.59;;;10.65;58.90
26823;BME280;14852;51.910;8.878;2023-05-25T05:02:35;100743.78;;;10.71;59.09
26823;BME280;14852;51.910;8.878;2023-05-25T05:05:00;100751.28;;;10.78;58.80
26823;BME280;14852;51.910;8.878;2023-05-25T05:07:27;100757.88;;;10.87;58.65
26823;BME280;14852;51.910;8.878;2023-05-25T05:09:53;100756.03;;;10.91;59.00
26823;BME280;14852;51.910;8.878;2023-05-25T05:12:19;100745.38;;;10.97;59.17
26823;BME280;14852;51.910;8.878;2023-05-25T05:14:49;100751.09;;;11.06;59.21
26823;BME280;14852;51.910;8.878;2023-05-25T05:17:15;100760.34;;;11.13;59.18
26823;BME280;14852;51.910;8.878;2023-05-25T05:19:42;100762.63;;;11.21;59.35
26823;BME280;14852;51.910;8.878;2023-05-25T05:22:09;100751.91;;;11.30;59.17
26823;BME280;14852;51.910;8.878;2023-05-25T05:24:37;100762.72;;;11.41;59.20
26823;BME280;14852;51.910;8.878;2023-05-25T05:27:03;100762.34;;;11.50;59.51
26823;BME280;14852;51.910;8.878;2023-05-25T05:29:36;100768.13;;;11.57;59.26
26823;BME280;14852;51.910;8.878;2023-05-25T05:32:02;100768.59;;;11.67;59.70
26823;BME280;14852;51.910;8.878;2023-05-25T05:34:29;100776.09;;;11.76;59.40
26823;BME280;14852;51.910;8.878;2023-05-25T05:36:55;100767.78;;;11.88;59.55
26823;BME280;14852;51.910;8.878;2023-05-25T05:39:21;100775.78;;;12.04;59.45
26823;BME280;14852;51.910;8.878;2023-05-25T05:41:47;100776.56;;;12.26;59.57
26823;BME280;14852;51.910;8.878;2023-05-25T05:44:13;100778.44;;;12.43;59.29
26823;BME280;14852;51.910;8.878;2023-05-25T05:46:38;100777.69;;;12.59;58.88
26823;BME280;14852;51.910;8.878;2023-05-25T05:49:04;100774.47;;;12.73;59.24
26823;BME280;14852;51.910;8.878;2023-05-25T05:51:30;100779.84;;;12.89;59.01
26823;BME280;14852;51.910;8.878;2023-05-25T05:53:56;100786.28;;;13.00;59.26
26823;BME280;14852;51.910;8.878;2023-05-25T05:56:23;100785.78;;;13.11;58.93
26823;BME280;14852;51.910;8.878;2023-05-25T05:58:49;100791.56;;;13.18;59.22
26823;BME280;14852;51.910;8.878;2023-05-25T06:01:16;100803.44;;;13.25;59.08
26823;BME280;14852;51.910;8.878;2023-05-25T06:03:43;100804.75;;;13.33;58.95
26823;BME280;14852;51.910;8.878;2023-05-25T06:06:11;100797.41;;;13.41;59.20
26823;BME280;14852;51.910;8.878;2023-05-25T06:08:37;100797.81;;;13.51;59.42
26823;BME280;14852;51.910;8.878;2023-05-25T06:11:06;100800.91;;;13.59;59.05
26823;BME280;14852;51.910;8.878;2023-05-25T06:13:32;100803.94;;;13.69;58.82
26823;BME280;14852;51.910;8.878;2023-05-25T06:15:57;100799.94;;;13.79;59.08
26823;BME280;14852;51.910;8.878;2023-05-25T06:18:24;100799.81;;;13.82;58.95
26823;BME280;14852;51.910;8.878;2023-05-25T06:20:50;100804.63;;;13.90;58.88
26823;BME280;14852;51.910;8.878;2023-05-25T06:23:16;100810.09;;;14.02;58.88
26823;BME280;14852;51.910;8.878;2023-05-25T06:25:44;100807.72;;;14.15;58.96
26823;BME280;14852;51.910;8.878;2023-05-25T06:28:09;100808.03;;;14.26;58.57
26823;BME280;14852;51.910;8.878;2023-05-25T06:30:35;100816.25;;;14.36;58.89
26823;BME280;14852;51.910;8.878;2023-05-25T06:33:02;100816.66;;;14.45;58.41
26823;BME280;14852;51.910;8.878;2023-05-25T06:35:28;100818.97;;;14.52;58.30
26823;BME280;14852;51.910;8.878;2023-05-25T06:37:54;100817.69;;;14.59;58.64
26823;BME280;14852;51.910;8.878;2023-05-25T06:40:21;100822.78;;;14.62;58.72
26823;BME280;14852;51.910;8.878;2023-05-25T06:42:47;100832.06;;;14.67;58.68
26823;BME280;14852;51.910;8.878;2023-05-25T06:45:45;100827.53;;;14.71;58.46
26823;BME280;14852;51.910;8.878;2023-05-25T06:48:11;100829.91;;;14.75;58.23
26823;BME280;14852;51.910;8.878;2023-05-25T06:50:37;100832.19;;;14.81;58.21
26823;BME280;14852;51.910;8.878;2023-05-25T06:53:04;100827.66;;;14.85;58.20
26823;BME280;14852;51.910;8.878;2023-05-25T06:55:30;100832.81;;;14.87;57.87
26823;BME280;14852;51.910;8.878;2023-05-25T06:57:55;100832.97;;;14.83;58.15
26823;BME280;14852;51.910;8.878;2023-05-25T07:00:22;100832.81;;;14.87;58.08
26823;BME280;14852;51.910;8.878;2023-05-25T07:02:48;100827.50;;;14.88;57.76
26823;BME280;14852;51.910;8.878;2023-05-25T07:05:13;100834.41;;;14.89;57.83
26823;BME280;14852;51.910;8.878;2023-05-25T07:07:39;100831.56;;;14.94;57.82
26823;BME280;14852;51.910;8.878;2023-05-25T07:10:07;100838.06;;;15.02;57.15
26823;BME280;14852;51.910;8.878;2023-05-25T07:12:32;100841.22;;;15.09;57.38
26823;BME280;14852;51.910;8.878;2023-05-25T07:14:58;100833.94;;;15.14;57.12
26823;BME280;14852;51.910;8.878;2023-05-25T07:17:24;100841.63;;;15.17;57.24
26823;BME280;14852;51.910;8.878;2023-05-25T07:19:51;100839.78;;;15.19;56.91
26823;BME280;14852;51.910;8.878;2023-05-25T07:22:16;100844.09;;;15.20;56.84
26823;BME280;14852;51.910;8.878;2023-05-25T07:24:46;100846.53;;;15.23;56.81
26823;BME280;14852;51.910;8.878;2023-05-25T07:27:12;100844.66;;;15.25;56.95
26823;BME280;14852;51.910;8.878;2023-05-25T07:29:38;100842.75;;;15.29;56.79
26823;BME280;14852;51.910;8.878;2023-05-25T07:32:05;100839.50;;;15.23;56.97
26823;BME280;14852;51.910;8.878;2023-05-25T07:34:33;100838.44;;;15.28;56.97
26823;BME280;14852;51.910;8.878;2023-05-25T07:36:59;100841.88;;;15.28;56.89
26823;BME280;14852;51.910;8.878;2023-05-25T07:39:25;100853.91;;;15.32;57.03
26823;BME280;14852;51.910;8.878;2023-05-25T07:41:51;100853.97;;;15.31;57.06
26823;BME280;14852;51.910;8.878;2023-05-25T07:44:17;100853.06;;;15.32;56.85
26823;BME280;14852;51.910;8.878;2023-05-25T07:46:43;100852.78;;;15.36;56.52
26823;BME280;14852;51.910;8.878;2023-05-25T07:49:08;100852.53;;;15.41;56.68
26823;BME280;14852;51.910;8.878;2023-05-25T07:51:42;100859.41;;;15.43;56.12
26823;BME280;14852;51.910;8.878;2023-05-25T07:54:08;100857.28;;;15.50;56.42
26823;BME280;14852;51.910;8.878;2023-05-25T07:56:33;100855.28;;;15.55;55.88
26823;BME280;14852;51.910;8.878;2023-05-25T07:58:59;100864.75;;;15.57;56.06
26823;BME280;14852;51.910;8.878;2023-05-25T08:01:26;100858.41;;;15.62;55.73
26823;BME280;14852;51.910;8.878;2023-05-25T08:03:51;100865.09;;;15.67;55.60
26823;BME280;14852;51.910;8.878;2023-05-25T08:06:17;100867.50;;;15.70;55.70
26823;BME280;14852;51.910;8.878;2023-05-25T08:08:43;100865.16;;;15.66;55.51
26823;BME280;14852;51.910;8.878;2023-05-25T08:11:10;100873.25;;;15.61;55.90
26823;BME280;14852;51.910;8.878;2023-05-25T08:13:36;100875.03;;;15.61;56.18
26823;BME280;14852;51.910;8.878;2023-05-25T08:16:02;100872.19;;;15.65;55.87
26823;BME280;14852;51.910;8.878;2023-05-25T08:18:28;100873.50;;;15.72;55.47
26823;BME280;14852;51.910;8.878;2023-05-25T08:20:56;100872.44;;;15.76;55.40
26823;BME280;14852;51.910;8.878;2023-05-25T08:23:22;100880.84;;;15.81;55.81
26823;BME280;14852;51.910;8.878;2023-05-25T08:25:47;100879.84;;;15.84;55.35
26823;BME280;14852;51.910;8.878;2023-05-25T08:28:13;100873.44;;;15.89;55.57
26823;BME280;14852;51.910;8.878;2023-05-25T08:30:39;100872.97;;;15.97;55.48
26823;BME280;14852;51.910;8.878;2023-05-25T08:33:05;100872.31;;;15.93;55.07
26823;BME280;14852;51.910;8.878;2023-05-25T08:35:31;100874.34;;;15.88;55.27
26823;BME280;14852;51.910;8.878;2023-05-25T08:37:57;100868.75;;;15.94;54.82
26823;BME280;14852;51.910;8.878;2023-05-25T08:40:26;100875.34;;;16.02;54.60
26823;BME280;14852;51.910;8.878;2023-05-25T08:42:54;100891.66;;;16.07;54.68
26823;BME280;14852;51.910;8.878;2023-05-25T08:45:20;100892.16;;;16.13;54.26
26823;BME280;14852;51.910;8.878;2023-05-25T08:47:47;100883.06;;;16.19;54.40
26823;BME280;14852;51.910;8.878;2023-05-25T08:50:16;100886.56;;;16.19;54.39
26823;BME280;14852;51.910;8.878;2023-05-25T08:52:44;100882.16;;;16.20;53.97
26823;BME280;14852;51.910;8.878;2023-05-25T08:55:11;100889.75;;;16.24;54.21
26823;BME280;14852;51.910;8.878;2023-05-25T08:57:59;100883.97;;;16.34;54.14
26823;BME280;14852;51.910;8.878;2023-05-25T09:00:35;100888.22;;;16.36;54.07
26823;BME280;14852;51.910;8.878;2023-05-25T09:03:09;100892.88;;;16.31;54.02
26823;BME280;14852;51.910;8.878;2023-05-25T09:05:36;100892.03;;;16.30;54.48
26823;BME280;14852;51.910;8.878;2023-05-25T09:08:06;100892.38;;;16.24;54.20
26823;BME280;14852;51.910;8.878;2023-05-25T09:10:34;100896.59;;;16.27;54.36
26823;BME280;14852;51.910;8.878;2023-05-25T09:13:01;100899.72;;;16.34;54.05
26823;BME280;14852;51.910;8.878;2023-05-25T09:15:27;100900.78;;;16.45;54.08
26823;BME280;14852;51.910;8.878;2023-05-25T09:17:52;100903.03;;;16.51;53.84
26823;BME280;14852;51.910;8.878;2023-05-25T09:20:18;100898.47;;;16.55;54.05
26823;BME280;14852;51.910;8.878;2023-05-25T09:22:46;100892.69;;;16.64;53.55
26823;BME280;14852;51.910;8.878;2023-05-25T09:25:17;100901.16;;;16.69;53.33
26823;BME280;14852;51.910;8.878;2023-05-25T09:27:46;100896.38;;;16.76;53.35
26823;BME280;14852;51.910;8.878;2023-05-25T09:30:12;100895.25;;;16.80;53.20
26823;BME280;14852;51.910;8.878;2023-05-25T09:32:38;100890.69;;;16.83;53.09
26823;BME280;14852;51.910;8.878;2023-05-25T09:37:34;100906.16;;;17.02;52.79
26823;BME280;14852;51.910;8.878;2023-05-25T09:40:00;100906.34;;;17.13;52.94
26823;BME280;14852;51.910;8.878;2023-05-25T09:42:26;100906.69;;;17.21;52.72
26823;BME280;14852;51.910;8.878;2023-05-25T09:44:52;100903.81;;;17.26;52.70
26823;BME280;14852;51.910;8.878;2023-05-25T09:47:18;100915.41;;;17.22;52.38
26823;BME280;14852;51.910;8.878;2023-05-25T09:49:44;100907.63;;;17.20;52.24
26823;BME280;14852;51.910;8.878;2023-05-25T09:52:13;100910.38;;;17.19;52.59
26823;BME280;14852;51.910;8.878;2023-05-25T09:54:38;100907.94;;;17.30;52.59
26823;BME280;14852;51.910;8.878;2023-05-25T09:57:07;100904.91;;;17.50;52.08
26823;BME280;14852;51.910;8.878;2023-05-25T09:59:35;100903.38;;;17.75;51.77
26823;BME280;14852;51.910;8.878;2023-05-25T10:02:01;100902.53;;;18.01;51.44
26823;BME280;14852;51.910;8.878;2023-05-25T10:04:27;100897.88;;;18.19;50.85
26823;BME280;14852;51.910;8.878;2023-05-25T10:06:53;100901.28;;;18.33;50.75
26823;BME280;14852;51.910;8.878;2023-05-25T10:09:19;100904.22;;;18.41;51.00
26823;BME280;14852;51.910;8.878;2023-05-25T10:11:47;100907.16;;;18.37;50.59
26823;BME280;14852;51.910;8.878;2023-05-25T10:14:27;100918.53;;;18.37;51.01
26823;BME280;14852;51.910;8.878;2023-05-25T10:16:56;100924.16;;;18.45;50.59
26823;BME280;14852;51.910;8.878;2023-05-25T10:19:37;100922.19;;;18.62;50.73
26823;BME280;14852;51.910;8.878;2023-05-25T10:22:21;100910.94;;;18.85;50.50
26823;BME280;14852;51.910;8.878;2023-05-25T10:24:54;100910.66;;;19.02;49.74
26823;BME280;14852;51.910;8.878;2023-05-25T10:27:30;100908.72;;;19.17;49.81
26823;BME280;14852;51.910;8.878;2023-05-25T10:29:59;100905.94;;;19.44;49.60
26823;BME280;14852;51.910;8.878;2023-05-25T10:32:27;100903.41;;;19.92;48.96
26823;BME280;14852;51.910;8.878;2023-05-25T10:34:56;100900.31;;;20.33;47.86
26823;BME280;14852;51.910;8.878;2023-05-25T10:37:25;100898.78;;;20.65;47.30
26823;BME280;14852;51.910;8.878;2023-05-25T10:39:52;100897.03;;;20.88;46.62
26823;BME280;14852;51.910;8.878;2023-05-25T10:42:18;100898.44;;;20.92;46.78
26823;BME280;14852;51.910;8.878;2023-05-25T10:44:45;100895.22;;;21.00;46.80
26823;BME280;14852;51.910;8.878;2023-05-25T10:47:11;100907.22;;;21.04;46.73
26823;BME280;14852;51.910;8.878;2023-05-25T10:52:27;100888.72;;;20.92;46.36
26823;BME280;14852;51.910;8.878;2023-05-25T10:54:58;100898.44;;;20.92;46.65
26823;BME280;14852;51.910;8.878;2023-05-25T10:57:27;100905.28;;;20.83;47.29
26823;BME280;14852;51.910;8.878;2023-05-25T11:00:01;100911.72;;;20.68;47.18
26823;BME280;14852;51.910;8.878;2023-05-25T11:02:50;100907.03;;;20.60;47.53
26823;BME280;14852;51.910;8.878;2023-05-25T11:07:58;100904.53;;;20.70;47.24
26823;BME280;14852;51.910;8.878;2023-05-25T11:16:21;100904.78;;;20.78;47.24
26823;BME280;14852;51.910;8.878;2023-05-25T11:18:52;100903.00;;;20.79;45.94
26823;BME280;14852;51.910;8.878;2023-05-25T11:24:02;100899.06;;;20.95;46.39
26823;BME280;14852;51.910;8.878;2023-05-25T11:26:35;100897.03;;;20.99;45.81
26823;BME280;14852;51.910;8.878;2023-05-25T11:29:14;100899.28;;;21.04;46.04
26823;BME280;14852;51.910;8.878;2023-05-25T11:31:40;100890.06;;;21.09;45.59
26823;BME280;14852;51.910;8.878;2023-05-25T11:34:06;100879.53;;;21.20;45.22
26823;BME280;14852;51.910;8.878;2023-05-25T11:36:35;100872.75;;;21.50;44.48
26823;BME280;14852;51.910;8.878;2023-05-25T11:39:03;100874.16;;;21.65;44.06
26823;BME280;14852;51.910;8.878;2023-05-25T11:41:29;100875.97;;;21.64;43.85
26823;BME280;14852;51.910;8.878;2023-05-25T11:44:05;100866.59;;;21.60;44.14
26823;BME280;14852;51.910;8.878;2023-05-25T11:46:31;100869.22;;;21.60;44.37
26823;BME280;14852;51.910;8.878;2023-05-25T11:48:58;100861.28;;;21.72;44.07
26823;BME280;14852;51.910;8.878;2023-05-25T11:51:27;100863.56;;;21.76;43.73
26823;BME280;14852;51.910;8.878;2023-05-25T11:53:53;100865.22;;;21.77;43.53
26823;BME280;14852;51.910;8.878;2023-05-25T11:56:20;100862.22;;;21.71;43.05
26823;BME280;14852;51.910;8.878;2023-05-25T11:58:49;100866.34;;;21.63;43.47
26823;BME280;14852;51.910;8.878;2023-05-25T12:01:20;100864.69;;;21.51;43.59
26823;BME280;14852;51.910;8.878;2023-05-25T12:03:51;100863.72;;;21.52;43.94
26823;BME280;14852;51.910;8.878;2023-05-25T12:06:32;100867.94;;;21.55;44.46
26823;BME280;14852;51.910;8.878;2023-05-25T12:09:00;100870.19;;;21.59;43.50
26823;BME280;14852;51.910;8.878;2023-05-25T12:11:32;100863.22;;;21.58;43.54
26823;BME280;14852;51.910;8.878;2023-05-25T12:14:00;100861.31;;;21.49;43.53
26823;BME280;14852;51.910;8.878;2023-05-25T12:16:27;100867.84;;;21.45;43.19
26823;BME280;14852;51.910;8.878;2023-05-25T12:18:55;100863.75;;;21.41;43.71
26823;BME280;14852;51.910;8.878;2023-05-25T12:21:22;100863.63;;;21.43;43.09
26823;BME280;14852;51.910;8.878;2023-05-25T12:23:49;100856.16;;;21.48;43.25
26823;BME280;14852;51.910;8.878;2023-05-25T12:26:16;100861.56;;;21.46;42.82
26823;BME280;14852;51.910;8.878;2023-05-25T12:29:05;100856.63;;;21.53;42.93
26823;BME280;14852;51.910;8.878;2023-05-25T12:31:35;100857.56;;;21.63;42.34
26823;BME280;14852;51.910;8.878;2023-05-25T12:34:10;100859.47;;;21.72;42.34
26823;BME280;14852;51.910;8.878;2023-05-25T12:36:50;100859.31;;;21.85;42.06
26823;BME280;14852;51.910;8.878;2023-05-25T12:39:33;100850.94;;;21.80;42.77
26823;BME280;14852;51.910;8.878;2023-05-25T12:42:04;100851.53;;;21.72;42.41
26823;BME280;14852;51.910;8.878;2023-05-25T12:44:35;100855.41;;;21.68;42.70
26823;BME280;14852;51.910;8.878;2023-05-25T12:47:18;100857.94;;;21.58;43.26
26823;BME280;14852;51.910;8.878;2023-05-25T12:49:50;100861.09;;;21.41;43.42
26823;BME280;14852;51.910;8.878;2023-05-25T12:52:40;100856.06;;;21.38;43.12
26823;BME280;14852;51.910;8.878;2023-05-25T12:55:32;100855.69;;;21.43;42.98
26823;BME280;14852;51.910;8.878;2023-05-25T12:58:05;100855.31;;;21.47;42.68
26823;BME280;14852;51.910;8.878;2023-05-25T13:00:36;100859.91;;;21.45;42.57
26823;BME280;14852;51.910;8.878;2023-05-25T13:03:03;100856.28;;;21.46;42.35
26823;BME280;14852;51.910;8.878;2023-05-25T13:05:32;100852.91;;;21.55;42.41
26823;BME280;14852;51.910;8.878;2023-05-25T13:08:00;100849.16;;;21.58;42.30
26823;BME280;14852;51.910;8.878;2023-05-25T13:10:30;100850.47;;;21.63;42.03
26823;BME280;14852;51.910;8.878;2023-05-25T13:12:57;100847.06;;;21.73;41.81
26823;BME280;14852;51.910;8.878;2023-05-25T13:15:24;100848.13;;;21.81;41.52
26823;BME280;14852;51.910;8.878;2023-05-25T13:17:53;100851.53;;;21.72;41.93
26823;BME280;14852;51.910;8.878;2023-05-25T13:20:21;100851.66;;;21.71;41.84
26823;BME280;14852;51.910;8.878;2023-05-25T13:22:50;100843.00;;;21.80;42.05